createdAt,value
2018-01-06T00:00:38.224Z,13.80
2018-01-06T00:03:07.002Z,13.53
2018-01-06T00:05:35.688Z,16.43
2018-01-06T00:08:04.374Z,17.77
2018-01-06T00:10:33.157Z,18.33
2018-01-06T00:13:01.842Z,16.73
2018-01-06T00:15:30.429Z,22.53
2018-01-06T00:17:59.242Z,19.17
2018-01-06T00:20:27.910Z,17.07
2018-01-06T00:22:56.586Z,19.53
2018-01-06T00:25:25.275Z,22.70
2018-01-06T00:27:53.958Z,16.37
2018-01-06T00:30:22.550Z,17.60
2018-01-06T00:32:51.277Z,18.87
2018-01-06T00:35:20.694Z,19.93
2018-01-06T00:37:50.040Z,17.10
2018-01-06T00:40:18.715Z,21.03
2018-01-06T00:42:47.412Z,18.33
2018-01-06T00:45:16.087Z,16.67
2018-01-06T00:47:44.932Z,31.00
2018-01-06T00:50:14.393Z,20.37
2018-01-06T00:52:43.076Z,27.73
2018-01-06T00:55:11.960Z,29.77
2018-01-06T00:57:40.657Z,27.80
2018-01-06T01:00:09.296Z,25.27
2018-01-06T01:02:38.017Z,30.77
2018-01-06T01:05:06.608Z,33.57
2018-01-06T01:07:35.898Z,61.87
2018-01-06T01:10:04.690Z,35.53
2018-01-06T01:12:33.375Z,37.73
2018-01-06T01:15:02.061Z,23.37
2018-01-06T01:17:30.792Z,20.77
2018-01-06T01:20:00.255Z,23.13
2018-01-06T01:22:28.881Z,27.00
2018-01-06T01:24:58.652Z,29.47
2018-01-06T01:27:27.333Z,22.13
2018-01-06T01:29:55.920Z,24.17
2018-01-06T01:32:24.651Z,21.40
2018-01-06T01:34:54.005Z,20.80
2018-01-06T01:37:22.637Z,21.53
2018-01-06T01:39:52.254Z,26.53
2018-01-06T01:42:20.984Z,27.83
2018-01-06T01:44:49.615Z,28.80
2018-01-06T01:47:19.376Z,25.57
2018-01-06T01:49:48.023Z,34.23
2018-01-06T01:52:17.471Z,29.67
2018-01-06T01:54:46.158Z,25.90
2018-01-06T01:57:14.860Z,28.87
2018-01-06T01:59:43.532Z,31.03
2018-01-06T02:02:12.589Z,27.23
2018-01-06T02:04:41.310Z,24.43
2018-01-06T02:07:09.950Z,26.53
2018-01-06T02:09:38.679Z,24.73
2018-01-06T02:12:07.474Z,26.63
2018-01-06T02:14:36.149Z,34.57
2018-01-06T02:17:04.847Z,28.13
2018-01-06T02:19:33.533Z,28.80
2018-01-06T02:22:02.218Z,29.07
2018-01-06T02:24:31.049Z,32.33
2018-01-06T02:27:00.512Z,26.87
2018-01-06T02:29:29.059Z,24.77
2018-01-06T02:31:57.773Z,21.70
2018-01-06T02:34:26.419Z,27.73
2018-01-06T02:36:55.171Z,25.83
2018-01-06T02:39:24.248Z,25.30
2018-01-06T02:41:52.824Z,23.40
2018-01-06T02:44:21.511Z,21.80
2018-01-06T02:46:50.305Z,25.53
2018-01-06T02:49:18.971Z,20.67
2018-01-06T02:51:47.619Z,23.07
2018-01-06T02:54:17.087Z,23.57
2018-01-06T02:56:45.781Z,19.07
2018-01-06T02:59:14.340Z,21.73
2018-01-06T03:01:43.488Z,20.33
2018-01-06T03:04:12.949Z,17.83
2018-01-06T03:06:41.571Z,18.77
2018-01-06T03:09:11.044Z,21.67
2018-01-06T03:11:39.819Z,18.90
2018-01-06T03:14:08.504Z,19.73
2018-01-06T03:16:37.191Z,22.90
2018-01-06T03:19:05.838Z,27.13
2018-01-06T03:21:34.561Z,24.00
2018-01-06T03:24:03.357Z,25.73
2018-01-06T03:26:31.933Z,26.00
2018-01-06T03:29:00.620Z,24.60
2018-01-06T03:31:29.613Z,24.67
2018-01-06T03:33:58.269Z,25.27
2018-01-06T03:36:26.984Z,23.63
2018-01-06T03:38:55.976Z,25.37
2018-01-06T03:41:24.718Z,22.33
2018-01-06T03:43:54.173Z,30.47
2018-01-06T03:46:23.165Z,26.10
2018-01-06T03:48:51.851Z,27.97
2018-01-06T03:51:20.635Z,29.00
2018-01-06T03:53:49.320Z,33.03
2018-01-06T03:56:18.132Z,34.37
2018-01-06T03:58:48.292Z,31.90
2018-01-06T04:01:17.063Z,34.77
2018-01-06T04:03:46.528Z,33.17
2018-01-06T04:06:15.220Z,34.37
2018-01-06T04:08:43.893Z,28.20
2018-01-06T04:11:12.580Z,33.47
2018-01-06T04:13:41.266Z,28.43
2018-01-06T04:16:10.061Z,32.13
2018-01-06T04:18:38.747Z,30.20
2018-01-06T04:21:07.324Z,29.13
2018-01-06T04:23:36.069Z,31.07
2018-01-06T04:26:05.518Z,27.73
2018-01-06T04:28:34.183Z,24.53
2018-01-06T04:31:02.988Z,25.83
2018-01-06T04:33:31.674Z,25.33
2018-01-06T04:36:00.360Z,30.80
2018-01-06T04:38:29.155Z,39.43
2018-01-06T04:40:57.793Z,43.60
2018-01-06T04:43:27.240Z,42.17
2018-01-06T04:45:56.184Z,119.33
2018-01-06T04:48:25.532Z,131.00
2018-01-06T04:50:54.120Z,132.57
2018-01-06T04:53:22.796Z,86.90
2018-01-06T04:55:51.492Z,60.77
2018-01-06T04:58:20.177Z,34.60
2018-01-06T05:00:49.060Z,35.90
2018-01-06T05:03:17.747Z,32.17
2018-01-06T05:05:46.333Z,27.60
2018-01-06T05:08:15.269Z,26.07
2018-01-06T05:10:44.685Z,27.70
2018-01-06T05:13:13.415Z,34.70
2018-01-06T05:15:42.370Z,33.90
2018-01-06T05:18:10.992Z,34.27
2018-01-06T05:20:39.678Z,35.10
2018-01-06T05:23:08.422Z,35.40
2018-01-06T05:25:37.065Z,17.40
2018-01-06T05:28:05.835Z,11.27
2018-01-06T05:30:36.265Z,11.57
2018-01-06T05:33:04.951Z,8.57
2018-01-06T05:35:33.636Z,8.60
2018-01-06T05:38:02.421Z,6.43
2018-01-06T05:40:31.107Z,8.47
2018-01-06T05:42:59.739Z,10.13
2018-01-06T05:45:29.204Z,7.77
2018-01-06T05:47:57.975Z,8.63
2018-01-06T05:50:26.617Z,14.23
2018-01-06T05:52:56.336Z,18.17
2018-01-06T05:55:25.065Z,10.03
2018-01-06T05:57:53.695Z,13.90
2018-01-06T06:00:23.212Z,14.83
2018-01-06T06:02:52.658Z,28.70
2018-01-06T06:05:21.299Z,49.63
2018-01-06T06:07:50.152Z,92.73
2018-01-06T06:10:18.883Z,94.50
2018-01-06T06:12:47.512Z,113.07
2018-01-06T06:15:16.395Z,75.87
2018-01-06T06:17:45.081Z,74.90
2018-01-06T06:20:13.769Z,108.13
2018-01-06T06:22:42.722Z,107.87
2018-01-06T06:25:11.446Z,88.20
2018-01-06T06:27:40.083Z,102.70
2018-01-06T06:30:09.551Z,146.47
2018-01-06T06:32:38.324Z,222.17
2018-01-06T06:35:07.014Z,186.27
2018-01-06T06:37:35.953Z,189.83
2018-01-06T06:40:05.333Z,183.93
2018-01-06T06:42:33.991Z,196.57
2018-01-06T06:45:02.932Z,162.20
2018-01-06T06:47:32.383Z,110.13
2018-01-06T06:50:01.068Z,55.50
2018-01-06T06:52:30.061Z,84.47
2018-01-06T06:54:58.748Z,71.00
2018-01-06T06:57:27.543Z,55.00
2018-01-06T06:59:56.428Z,46.40
2018-01-06T07:02:25.112Z,65.30
2018-01-06T07:04:53.798Z,123.40
2018-01-06T07:07:22.791Z,92.77
2018-01-06T07:09:51.379Z,106.70
2018-01-06T07:12:20.164Z,115.23
2018-01-06T07:14:48.848Z,119.40
2018-01-06T07:17:17.535Z,168.97
2018-01-06T07:19:46.180Z,184.50
2018-01-06T07:22:14.822Z,125.90
2018-01-06T07:24:43.489Z,65.77
2018-01-06T07:27:12.132Z,98.30
2018-01-06T07:29:41.628Z,114.83
2018-01-06T07:32:11.044Z,50.73
2018-01-06T07:34:39.773Z,54.50
2018-01-06T07:37:08.508Z,39.50
2018-01-06T07:39:37.968Z,35.07
2018-01-06T07:42:06.637Z,32.77
2018-01-06T07:44:35.329Z,30.63
2018-01-06T07:47:04.025Z,45.80
2018-01-06T07:49:32.664Z,28.07
2018-01-06T07:52:03.285Z,21.20
2018-01-06T07:54:32.738Z,28.50
2018-01-06T07:57:01.424Z,172.00
2018-01-06T07:59:30.218Z,58.23
2018-01-06T08:01:58.898Z,29.27
2018-01-06T08:04:27.590Z,25.07
2018-01-06T08:06:56.268Z,169.67
2018-01-06T08:09:24.976Z,31.67
2018-01-06T08:11:53.653Z,17.87
2018-01-06T08:14:22.421Z,21.63
2018-01-06T08:16:51.064Z,18.07
2018-01-06T08:19:20.482Z,26.17
2018-01-06T08:21:49.203Z,40.20
2018-01-06T08:24:17.888Z,25.87
2018-01-06T08:26:46.575Z,25.50
2018-01-06T08:29:15.528Z,19.67
2018-01-06T08:31:44.077Z,38.37
2018-01-06T08:34:12.842Z,21.47
2018-01-06T08:36:41.654Z,90.87
2018-01-06T08:39:10.322Z,34.57
2018-01-06T08:41:39.090Z,27.03
2018-01-06T08:44:07.888Z,25.77
2018-01-06T08:46:36.578Z,36.73
2018-01-06T08:49:05.265Z,31.93
2018-01-06T08:51:34.214Z,24.00
2018-01-06T08:54:02.888Z,23.53
2018-01-06T08:56:32.300Z,18.77
2018-01-06T08:59:01.091Z,21.07
2018-01-06T09:01:30.536Z,31.97
2018-01-06T09:03:59.181Z,41.47
2018-01-06T09:06:27.907Z,66.43
2018-01-06T09:08:56.598Z,21.63
2018-01-06T09:11:25.280Z,18.40
2018-01-06T09:13:54.064Z,19.70
2018-01-06T09:16:22.750Z,17.43
2018-01-06T09:18:51.387Z,24.07
2018-01-06T09:21:21.251Z,17.10
2018-01-06T09:23:49.873Z,20.07
2018-01-06T09:26:19.292Z,92.27
2018-01-06T09:28:48.080Z,119.00
2018-01-06T09:31:17.532Z,20.87
2018-01-06T09:33:46.170Z,16.20
2018-01-06T09:36:15.923Z,19.10
2018-01-06T09:38:44.555Z,21.93
2018-01-06T09:41:14.019Z,32.57
2018-01-06T09:43:42.696Z,27.97
2018-01-06T09:46:11.390Z,96.47
2018-01-06T09:48:39.968Z,21.87
2018-01-06T09:51:08.959Z,18.30
2018-01-06T09:53:37.644Z,25.50
2018-01-06T09:56:06.232Z,19.97
2018-01-06T09:58:35.174Z,17.07
2018-01-06T10:01:04.624Z,19.77
2018-01-06T10:03:33.310Z,18.17
2018-01-06T10:06:01.995Z,26.70
2018-01-06T10:08:30.645Z,22.93
2018-01-06T10:10:59.734Z,23.87
2018-01-06T10:13:29.184Z,20.73
2018-01-06T10:15:57.870Z,29.73
2018-01-06T10:18:26.491Z,22.13
2018-01-06T10:20:55.966Z,17.17
2018-01-06T10:23:24.640Z,23.50
2018-01-06T10:25:53.271Z,24.23
2018-01-06T10:28:23.044Z,19.97
2018-01-06T10:30:51.829Z,18.90
2018-01-06T10:33:20.514Z,27.83
2018-01-06T10:35:49.298Z,21.20
2018-01-06T10:38:17.886Z,21.63
2018-01-06T10:40:46.531Z,20.13
2018-01-06T10:43:15.275Z,20.90
2018-01-06T10:45:44.041Z,20.23
2018-01-06T10:48:12.727Z,20.03
2018-01-06T10:50:41.336Z,21.17
2018-01-06T10:53:10.098Z,21.93
2018-01-06T10:55:38.785Z,20.57
2018-01-06T10:58:07.679Z,30.87
2018-01-06T11:03:42.627Z,25.20
2018-01-06T11:06:11.284Z,21.27
2018-01-06T11:08:39.840Z,21.43
2018-01-06T11:11:09.793Z,22.87
2018-01-06T11:13:38.501Z,23.70
2018-01-06T11:16:07.154Z,24.40
2018-01-06T11:18:35.876Z,31.73
2018-01-06T11:21:04.559Z,22.27
2018-01-06T11:23:33.147Z,28.33
2018-01-06T11:26:01.831Z,23.40
2018-01-06T11:28:30.408Z,23.07
2018-01-06T11:30:59.062Z,28.10
2018-01-06T11:33:28.054Z,23.57
2018-01-06T11:35:56.775Z,26.17
2018-01-06T11:38:25.360Z,24.87
2018-01-06T11:40:54.109Z,49.20
2018-01-06T11:43:22.780Z,28.03
2018-01-06T11:45:51.515Z,27.73
2018-01-06T11:48:20.305Z,32.57
2018-01-06T11:50:48.998Z,26.17
2018-01-06T11:53:17.575Z,25.30
2018-01-06T11:55:46.468Z,27.33
2018-01-06T11:58:15.109Z,22.50
2018-01-06T12:00:43.839Z,25.17
2018-01-06T12:03:12.770Z,22.23
2018-01-06T12:05:42.188Z,19.93
2018-01-06T12:10:45.842Z,21.10
2018-01-06T12:13:14.489Z,28.93
2018-01-06T12:15:43.959Z,20.13
2018-01-06T12:18:13.713Z,21.13
2018-01-06T12:20:42.299Z,19.37
2018-01-06T12:23:11.039Z,20.13
2018-01-06T12:32:25.437Z,20.27
2018-01-06T12:34:54.932Z,19.03
2018-01-06T12:37:24.373Z,25.77
2018-01-06T12:39:53.080Z,20.77
2018-01-06T12:42:21.665Z,15.30
2018-01-06T12:44:50.352Z,23.60
2018-01-06T12:47:21.629Z,20.37
2018-01-06T12:49:57.345Z,15.77
2018-01-06T12:52:26.339Z,22.83
2018-01-06T12:54:55.025Z,16.97
2018-01-06T12:57:23.605Z,20.63
2018-01-06T12:59:52.459Z,20.23
2018-01-06T13:02:21.180Z,21.90
2018-01-06T13:04:49.767Z,18.23
2018-01-06T13:07:18.523Z,18.00
2018-01-06T13:09:47.205Z,18.27
2018-01-06T13:12:15.923Z,24.20
2018-01-06T13:14:44.613Z,18.97
2018-01-06T13:17:13.294Z,19.33
2018-01-06T13:19:41.885Z,16.43
2018-01-06T13:22:10.620Z,18.00
2018-01-06T13:24:39.352Z,18.20
2018-01-06T13:27:07.939Z,25.13
2018-01-06T13:29:36.680Z,23.60
2018-01-06T13:32:05.369Z,20.43
2018-01-06T13:34:34.095Z,18.50
2018-01-06T13:37:02.826Z,22.93
2018-01-06T13:39:32.298Z,25.47
2018-01-06T13:42:01.042Z,23.73
2018-01-06T13:44:30.833Z,26.00
2018-01-06T13:47:00.251Z,28.27
2018-01-06T13:49:28.974Z,32.10
2018-01-06T13:51:58.148Z,24.53
2018-01-06T13:54:26.763Z,44.30
2018-01-06T13:56:55.424Z,31.17
2018-01-06T13:59:24.332Z,27.00
2018-01-06T14:01:52.985Z,26.70
2018-01-06T14:04:21.703Z,24.73
2018-01-06T14:06:50.696Z,19.00
2018-01-06T14:09:19.339Z,23.83
2018-01-06T14:11:48.068Z,22.37
2018-01-06T14:14:17.025Z,21.43
2018-01-06T14:16:45.746Z,23.37
2018-01-06T14:19:14.336Z,29.40
2018-01-06T14:21:43.326Z,33.67
2018-01-06T14:24:11.873Z,31.73
2018-01-06T14:26:40.599Z,26.77
2018-01-06T14:29:09.339Z,26.30
2018-01-06T14:31:38.080Z,29.70
2018-01-06T14:34:06.855Z,34.77
2018-01-06T14:36:35.753Z,76.93
2018-01-06T14:39:04.481Z,155.63
2018-01-06T14:41:33.833Z,140.43
2018-01-06T14:44:02.564Z,83.10
2018-01-06T14:46:32.028Z,154.37
2018-01-06T14:49:00.580Z,170.23
2018-01-06T14:51:29.332Z,160.10
2018-01-06T14:53:58.656Z,177.83
2018-01-06T14:56:27.385Z,157.00
2018-01-06T14:58:56.349Z,120.13
2018-01-06T15:01:25.064Z,105.27
2018-01-06T15:03:53.640Z,76.93
2018-01-06T15:06:22.743Z,103.63
2018-01-06T15:08:51.427Z,113.50
2018-01-06T15:11:20.065Z,134.07
2018-01-06T15:13:49.516Z,152.93
2018-01-06T15:16:18.199Z,146.33
2018-01-06T15:18:46.843Z,165.37
2018-01-06T15:21:15.933Z,172.90
2018-01-06T15:23:45.380Z,118.83
2018-01-06T15:26:14.072Z,104.37
2018-01-06T15:28:42.760Z,125.40
2018-01-06T15:31:11.458Z,156.70
2018-01-06T15:33:40.227Z,149.90
2018-01-06T15:36:09.170Z,98.40
2018-01-06T15:38:38.625Z,127.93
2018-01-06T15:41:07.316Z,130.20
2018-01-06T15:50:21.979Z,273.93
2018-01-06T15:52:50.700Z,220.73
2018-01-06T15:55:19.495Z,335.20
2018-01-06T15:57:48.588Z,345.97
2018-01-06T16:00:17.273Z,428.77
2018-01-06T16:02:45.958Z,397.23
2018-01-06T16:05:14.743Z,412.53
2018-01-06T16:07:43.429Z,389.50
2018-01-06T16:10:12.071Z,383.47
2018-01-06T16:12:40.704Z,329.33
2018-01-06T16:15:09.288Z,373.23
2018-01-06T16:17:37.975Z,373.23
2018-01-06T16:20:06.860Z,352.33
2018-01-06T16:22:35.511Z,377.70
2018-01-06T16:25:04.230Z,439.00
2018-01-06T16:27:33.029Z,371.60
2018-01-06T16:30:01.711Z,355.07
2018-01-06T16:32:30.353Z,371.83
2018-01-06T16:34:59.588Z,435.90
2018-01-06T16:37:28.249Z,466.23
2018-01-06T16:39:56.959Z,584.93
2018-01-06T16:42:25.952Z,684.73
2018-01-06T16:44:54.597Z,679.13
2018-01-06T16:47:23.324Z,627.67
2018-01-06T16:49:52.318Z,602.60
2018-01-06T16:52:21.825Z,541.00
2018-01-06T16:54:50.512Z,489.00
2018-01-06T16:57:19.296Z,489.47
2018-01-06T16:59:47.981Z,505.30
2018-01-06T17:02:16.667Z,479.53
2018-01-06T17:04:45.639Z,523.20
2018-01-06T17:07:14.346Z,545.27
2018-01-06T17:09:43.032Z,525.57
2018-01-06T17:12:11.644Z,574.83
2018-01-06T17:14:40.365Z,511.53
2018-01-06T17:17:09.056Z,480.37
2018-01-06T17:19:38.846Z,473.63
2018-01-06T17:22:08.263Z,468.67
2018-01-06T17:24:36.990Z,454.00
2018-01-06T17:27:05.787Z,449.57
2018-01-06T17:29:34.472Z,427.17
2018-01-06T17:32:03.158Z,412.87
2018-01-06T17:34:32.040Z,402.57
2018-01-06T17:37:00.696Z,407.37
2018-01-06T17:39:29.256Z,418.93
2018-01-06T17:41:58.822Z,410.67
2018-01-06T17:44:27.448Z,390.33
2018-01-06T17:46:56.907Z,405.23
2018-01-06T17:49:25.692Z,429.73
2018-01-06T17:51:54.377Z,424.93
2018-01-06T17:54:23.020Z,398.87
2018-01-06T17:56:52.038Z,434.70
2018-01-06T17:59:20.742Z,425.80
2018-01-06T18:01:49.428Z,446.97
2018-01-06T18:04:18.223Z,459.13
2018-01-06T18:06:46.900Z,448.73
2018-01-06T18:09:15.596Z,473.77
2018-01-06T18:11:44.587Z,485.87
2018-01-06T18:14:13.170Z,512.33
2018-01-06T18:16:41.851Z,474.63
2018-01-06T18:19:10.645Z,488.13
2018-01-06T18:21:39.331Z,501.90
2018-01-06T18:24:07.955Z,466.63
2018-01-06T18:26:37.670Z,461.50
2018-01-06T18:29:07.069Z,474.90
2018-01-06T18:31:36.537Z,439.07
2018-01-06T18:34:05.317Z,417.23
2018-01-06T18:36:34.104Z,411.43
2018-01-06T18:39:03.709Z,405.80
2018-01-06T18:41:32.858Z,415.17
2018-01-06T18:44:02.348Z,411.37
2018-01-06T18:46:31.105Z,405.27
2018-01-06T18:48:59.989Z,398.60
2018-01-06T18:51:28.675Z,412.50
2018-01-06T18:53:57.470Z,432.10
2018-01-06T18:56:26.412Z,434.23
2018-01-06T18:58:55.758Z,470.83
2018-01-06T19:01:24.402Z,497.47
2018-01-06T19:03:54.364Z,503.90
2018-01-06T19:06:22.942Z,489.77
2018-01-06T19:08:51.625Z,472.97
2018-01-06T19:11:20.420Z,437.43
2018-01-06T19:13:49.061Z,436.17
2018-01-06T19:16:17.730Z,430.87
2018-01-06T19:18:47.597Z,434.60
2018-01-06T19:21:16.243Z,432.90
2018-01-06T19:23:44.936Z,444.33
2018-01-06T19:26:13.662Z,441.37
2018-01-06T19:28:42.245Z,440.33
2018-01-06T19:31:10.890Z,424.30
2018-01-06T19:33:40.431Z,439.67
2018-01-06T19:36:09.079Z,449.20
2018-01-06T19:38:37.812Z,430.10
2018-01-06T19:41:06.488Z,382.07
2018-01-06T19:43:35.180Z,420.43
2018-01-06T19:46:03.817Z,401.80
2018-01-06T19:48:33.268Z,373.13
2018-01-06T19:51:01.951Z,307.63
2018-01-06T19:53:30.637Z,325.40
2018-01-06T19:55:59.524Z,320.00
2018-01-06T19:58:28.216Z,262.97
2018-01-06T20:00:56.849Z,144.23
2018-01-06T20:03:26.321Z,146.23
2018-01-06T20:05:55.038Z,151.77
2018-01-06T20:08:24.452Z,181.63
2018-01-06T20:10:53.548Z,186.97
2018-01-06T20:13:22.309Z,208.77
2018-01-06T20:15:51.781Z,175.83
2018-01-06T20:18:20.570Z,208.37
2018-01-06T20:20:49.253Z,218.80
2018-01-06T20:23:17.938Z,218.97
2018-01-06T20:25:46.724Z,198.73
2018-01-06T20:28:15.372Z,217.27
2018-01-06T20:30:44.094Z,216.87
2018-01-06T20:33:12.890Z,231.10
2018-01-06T20:35:41.577Z,180.83
2018-01-06T20:38:10.215Z,157.83
2018-01-06T20:40:39.911Z,151.97
2018-01-06T20:43:09.366Z,170.63
2018-01-06T20:45:37.997Z,186.13
2018-01-06T20:48:07.561Z,213.97
2018-01-06T20:50:36.249Z,200.27
2018-01-06T20:53:05.032Z,196.43
2018-01-06T20:55:34.234Z,286.60
2018-01-06T20:58:02.820Z,224.47
2018-01-06T21:00:31.500Z,215.40
2018-01-06T21:03:00.291Z,182.70
2018-01-06T21:05:28.878Z,145.73
2018-01-06T21:07:57.558Z,131.90
2018-01-06T21:10:26.353Z,95.53
2018-01-06T21:12:55.035Z,107.23
2018-01-06T21:15:23.615Z,152.90
2018-01-06T21:17:52.408Z,149.93
2018-01-06T21:20:20.993Z,129.53
2018-01-06T21:22:49.678Z,122.33
2018-01-06T21:25:18.405Z,97.43
2018-01-06T21:27:47.824Z,83.67
2018-01-06T21:30:16.548Z,80.10
2018-01-06T21:32:45.509Z,84.87
2018-01-06T21:35:14.227Z,82.33
2018-01-06T21:37:42.913Z,95.07
2018-01-06T21:40:12.062Z,70.70
2018-01-06T21:42:41.513Z,175.43
2018-01-06T21:45:10.199Z,183.90
2018-01-06T21:47:39.765Z,170.47
2018-01-06T21:50:08.504Z,174.77
2018-01-06T21:52:37.177Z,184.00
2018-01-06T21:55:06.317Z,222.57
2018-01-06T21:57:35.779Z,257.43
2018-01-06T22:00:04.581Z,256.03
2018-01-06T22:02:33.382Z,214.37
2018-01-06T22:05:02.045Z,266.70
2018-01-06T22:07:30.730Z,257.47
2018-01-06T22:09:59.514Z,146.80
2018-01-06T22:12:28.166Z,130.03
2018-01-06T22:14:56.788Z,127.90
2018-01-06T22:17:25.622Z,102.33
2018-01-06T22:19:55.081Z,88.73
2018-01-06T22:22:23.767Z,82.37
2018-01-06T22:24:52.602Z,87.40
2018-01-06T22:27:22.061Z,82.90
2018-01-06T22:29:50.746Z,81.17
2018-01-06T22:32:19.531Z,112.20
2018-01-06T22:34:48.117Z,82.37
2018-01-06T22:37:16.803Z,113.23
2018-01-06T22:39:45.795Z,84.23
2018-01-06T22:42:14.344Z,121.57
2018-01-06T22:44:43.018Z,102.90
2018-01-06T22:47:12.778Z,94.97
2018-01-06T22:49:41.408Z,62.10
2018-01-06T22:52:10.860Z,56.17
2018-01-06T22:54:40.043Z,54.93
2018-01-06T22:57:08.748Z,52.37
2018-01-06T22:59:37.434Z,51.80
2018-01-06T23:02:06.218Z,57.23
2018-01-06T23:04:34.864Z,53.23
2018-01-06T23:07:03.590Z,61.97
2018-01-06T23:09:32.183Z,71.93
2018-01-06T23:12:00.881Z,98.97
2018-01-06T23:14:30.306Z,88.57
2018-01-06T23:17:00.078Z,98.03
2018-01-06T23:19:28.746Z,72.07
2018-01-06T23:21:57.450Z,75.07
2018-01-06T23:24:26.180Z,77.40
2018-01-06T23:26:55.644Z,90.23
2018-01-06T23:29:24.429Z,99.93
2018-01-06T23:31:53.520Z,94.50
2018-01-06T23:34:22.176Z,158.17
2018-01-06T23:36:50.728Z,100.10
2018-01-06T23:39:20.461Z,87.47
2018-01-06T23:41:49.190Z,64.50
2018-01-06T23:44:17.981Z,67.00
2018-01-06T23:46:46.713Z,67.37
2018-01-06T23:49:16.164Z,69.07
2018-01-06T23:51:44.959Z,73.67
2018-01-06T23:54:13.843Z,82.57
2018-01-06T23:56:42.528Z,104.07
2018-01-06T23:59:11.219Z,73.27
